| time (UTC) | temp F | wind direction | speed MPH | gust MPH | rain 1hr in | rain 24hr in | rain mn in | humidity % | barometer mb |
| 20260903181216 | 98 | 162 | 0.0 | 0.0 | 0.00 | 0.00 | 0.00 | 10 | 1016.6 |
| 20260903180716 | 97 | 77 | 0.0 | 0.0 | 0.00 | 0.00 | 0.00 | 11 | 1016.6 |
| 20260903180216 | 96 | 106 | 0.0 | 0.0 | 0.00 | 0.00 | 0.00 | 11 | 1016.6 |
| 20260903175712 | 97 | 95 | 0.0 | 0.0 | 0.00 | 0.00 | 0.00 | 11 | 1016.6 |
| 20260903175212 | 97 | 118 | 0.0 | 0.0 | 0.00 | 0.00 | 0.00 | 11 | 1017.6 |
| 20260903174134 | 96 | 85 | 0.0 | 0.0 | 0.00 | 0.00 | 0.00 | 11 | 1017.6 |
| 20260903173134 | 95 | 356 | 0.0 | 0.0 | 0.00 | 0.00 | 0.00 | 11 | 1017.6 |
| 20260903172626 | 95 | 149 | 0.0 | 0.0 | 0.00 | 0.00 | 0.00 | 11 | 1017.6 |
| 20260903171626 | 95 | 113 | 0.0 | 0.0 | 0.00 | 0.00 | 0.00 | 11 | 1017.6 |
| 20260903170624 | 94 | 80 | 0.0 | 0.0 | 0.00 | 0.00 | 0.00 | 11 | 1017.6 |
| 20260903170124 | 94 | 102 | 0.0 | 0.0 | 0.00 | 0.00 | 0.00 | 11 | 1017.6 |
| 20260903164616 | 93 | 25 | 0.0 | 0.0 | 0.00 | 0.00 | 0.00 | 11 | 1017.6 |
| 20260903164112 | 93 | 24 | 0.0 | 0.0 | 0.00 | 0.00 | 0.00 | 11 | 1017.6 |
| 20260903162605 | 93 | 64 | 0.0 | 0.0 | 0.00 | 0.00 | 0.00 | 11 | 1018.6 |
| 20260903162105 | 92 | 70 | 0.0 | 0.0 | 0.00 | 0.00 | 0.00 | 11 | 1018.6 |
| 20260903161546 | 92 | 84 | 0.0 | 0.0 | 0.00 | 0.00 | 0.00 | 12 | 1018.6 |
| 20260903161042 | 92 | 70 | 0.0 | 0.0 | 0.00 | 0.00 | 0.00 | 12 | 1018.6 |
| 20260903160540 | 91 | 69 | 0.0 | 0.0 | 0.00 | 0.00 | 0.00 | 12 | 1018.6 |
| 20260903160040 | 91 | 110 | 0.0 | 0.0 | 0.00 | 0.00 | 0.00 | 12 | 1018.6 |
| 20260903155536 | 91 | 110 | 0.0 | 0.0 | 0.00 | 0.00 | 0.00 | 12 | 1018.6 |
| 20260903155036 | 90 | 110 | 0.0 | 0.0 | 0.00 | 0.00 | 0.00 | 12 | 1018.6 |
| 20260903153533 | 90 | 110 | 0.0 | 0.0 | 0.00 | 0.00 | 0.00 | 12 | 1018.6 |
| 20260903153033 | 90 | 110 | 0.0 | 0.0 | 0.00 | 0.00 | 0.00 | 12 | 1018.6 |
| 20260903152530 | 89 | 110 | 0.0 | 0.0 | 0.00 | 0.00 | 0.00 | 12 | 1018.6 |
| 20260903152030 | 89 | 110 | 0.0 | 0.0 | 0.00 | 0.00 | 0.00 | 12 | 1018.6 |
| 20260903151530 | 88 | 110 | 0.0 | 0.0 | 0.00 | 0.00 | 0.00 | 13 | 1018.6 |
| 20260903144936 | 87 | 136 | 0.0 | 0.0 | 0.00 | 0.00 | 0.00 | 16 | 1017.6 |
| 20260903144508 | 86 | 136 | 0.0 | 0.0 | 0.00 | 0.00 | 0.00 | 16 | 1017.6 |
| 20260903144436 | 86 | 136 | 0.0 | 0.0 | 0.00 | 0.00 | 0.00 | 16 | 1017.6 |
| 20260903140408 | 82 | 165 | 0.0 | 0.0 | 0.00 | 0.00 | 0.00 | 22 | 1018.6 |
| 20260903133330 | 79 | 165 | 0.0 | 0.0 | 0.00 | 0.00 | 0.00 | 30 | 1018.6 |
| 20260903132830 | 79 | 165 | 0.0 | 0.0 | 0.00 | 0.00 | 0.00 | 31 | 1018.6 |
| 20260903132326 | 78 | 165 | 0.0 | 0.0 | 0.00 | 0.00 | 0.00 | 31 | 1018.6 |
| 20260903131326 | 78 | 165 | 0.0 | 0.0 | 0.00 | 0.00 | 0.00 | 32 | 1018.6 |
| 20260903130355 | 77 | 165 | 0.0 | 0.0 | 0.00 | 0.00 | 0.00 | 32 | 1018.6 |
| 20260903130322 | 77 | 165 | 0.0 | 0.0 | 0.00 | 0.00 | 0.00 | 32 | 1018.6 |
| 20260903125822 | 76 | 164 | 0.0 | 0.0 | 0.00 | 0.00 | 0.00 | 32 | 1018.6 |
| 20260903123807 | 75 | 165 | 0.0 | 0.0 | 0.00 | 0.00 | 0.00 | 33 | 1018.6 |
| 20260903121301 | 73 | 165 | 0.0 | 0.0 | 0.00 | 0.00 | 0.00 | 33 | 1018.6 |
| 20260903115754 | 72 | 165 | 0.0 | 0.0 | 0.00 | 0.00 | 0.00 | 33 | 1017.6 |
| 20260903113736 | 72 | 164 | 0.0 | 0.0 | 0.00 | 0.00 | 0.00 | 33 | 1017.6 |
| 20260903113236 | 72 | 164 | 0.0 | 0.0 | 0.00 | 0.00 | 0.00 | 33 | 1017.6 |
| 20260903112735 | 72 | 165 | 0.0 | 0.0 | 0.00 | 0.00 | 0.00 | 33 | 1017.6 |
| 20260903112231 | 72 | 165 | 0.0 | 0.0 | 0.00 | 0.00 | 0.00 | 33 | 1017.6 |
| 20260903110728 | 72 | 164 | 0.0 | 0.0 | 0.00 | 0.00 | 0.00 | 33 | 1017.6 |
| 20260903110228 | 72 | 165 | 0.0 | 0.0 | 0.00 | 0.00 | 0.00 | 33 | 1017.6 |
| 20260903105728 | 72 | 174 | 0.0 | 0.0 | 0.00 | 0.00 | 0.00 | 33 | 1017.6 |
| 20260903105222 | 72 | 174 | 0.0 | 0.0 | 0.00 | 0.00 | 0.00 | 33 | 1017.6 |
| 20260903103717 | 72 | 174 | 0.0 | 0.0 | 0.00 | 0.00 | 0.00 | 33 | 1017.6 |
| 20260903103216 | 72 | 174 | 0.0 | 0.0 | 0.00 | 0.00 | 0.00 | 33 | 1017.6 |
| 20260903102717 | 72 | 174 | 0.0 | 0.0 | 0.00 | 0.00 | 0.00 | 33 | 1017.6 |
| 20260903102212 | 72 | 174 | 0.0 | 0.0 | 0.00 | 0.00 | 0.00 | 33 | 1017.6 |
| 20260903101709 | 72 | 174 | 0.0 | 0.0 | 0.00 | 0.00 | 0.00 | 33 | 1017.6 |
| 20260903101210 | 72 | 174 | 0.0 | 0.0 | 0.00 | 0.00 | 0.00 | 32 | 1017.6 |
| 20260903100706 | 72 | 174 | 0.0 | 0.0 | 0.00 | 0.00 | 0.00 | 32 | 1017.6 |
| 20260903095706 | 72 | 174 | 0.0 | 0.0 | 0.00 | 0.00 | 0.00 | 32 | 1017.6 |
| 20260903095201 | 72 | 174 | 0.0 | 0.0 | 0.00 | 0.00 | 0.00 | 32 | 1017.6 |
| 20260903094701 | 72 | 174 | 0.0 | 0.0 | 0.00 | 0.00 | 0.00 | 32 | 1017.6 |
| 20260903094159 | 72 | 174 | 0.0 | 0.0 | 0.00 | 0.00 | 0.00 | 32 | 1017.6 |
| 20260903093655 | 72 | 174 | 0.0 | 0.0 | 0.00 | 0.00 | 0.00 | 32 | 1017.6 |
| 20260903093155 | 72 | 174 | 0.0 | 0.0 | 0.00 | 0.00 | 0.00 | 32 | 1017.6 |
| 20260903092656 | 72 | 174 | 0.0 | 0.0 | 0.00 | 0.00 | 0.00 | 32 | 1017.6 |
| 20260903092152 | 73 | 174 | 0.0 | 0.0 | 0.00 | 0.00 | 0.00 | 32 | 1017.6 |
| 20260903091652 | 73 | 174 | 0.0 | 0.0 | 0.00 | 0.00 | 0.00 | 32 | 1017.6 |
| 20260903091153 | 73 | 174 | 0.0 | 0.0 | 0.00 | 0.00 | 0.00 | 32 | 1017.6 |
| 20260903090648 | 73 | 174 | 0.0 | 0.0 | 0.00 | 0.00 | 0.00 | 32 | 1016.6 |
| 20260903090148 | 73 | 174 | 0.0 | 0.0 | 0.00 | 0.00 | 0.00 | 32 | 1016.6 |
| 20260903085639 | 73 | 174 | 0.0 | 0.0 | 0.00 | 0.00 | 0.00 | 32 | 1016.6 |
| 20260903085134 | 73 | 174 | 0.0 | 0.0 | 0.00 | 0.00 | 0.00 | 32 | 1016.6 |
| 20260903084751 | 73 | 174 | 0.0 | 0.0 | 0.00 | 0.00 | 0.00 | 32 | 1016.6 |
| 20260903084633 | 73 | 174 | 0.0 | 0.0 | 0.00 | 0.00 | 0.00 | 32 | 1016.6 |
| 20260903084134 | 73 | 174 | 0.0 | 0.0 | 0.00 | 0.00 | 0.00 | 32 | 1016.6 |
| 20260903083626 | 73 | 174 | 0.0 | 0.0 | 0.00 | 0.00 | 0.00 | 32 | 1016.6 |
| 20260903083127 | 73 | 174 | 0.0 | 0.0 | 0.00 | 0.00 | 0.00 | 32 | 1016.6 |
| 20260903082625 | 73 | 174 | 0.0 | 0.0 | 0.00 | 0.00 | 0.00 | 32 | 1016.6 |
| 20260903082115 | 73 | 174 | 0.0 | 0.0 | 0.00 | 0.00 | 0.00 | 32 | 1016.6 |
| 20260903081615 | 74 | 174 | 0.0 | 0.0 | 0.00 | 0.00 | 0.00 | 31 | 1016.6 |
| 20260903081116 | 74 | 174 | 0.0 | 0.0 | 0.00 | 0.00 | 0.00 | 31 | 1016.6 |
| 20260903080112 | 74 | 174 | 0.0 | 0.0 | 0.00 | 0.00 | 0.00 | 31 | 1016.6 |
| 20260903075613 | 74 | 174 | 0.0 | 0.0 | 0.00 | 0.00 | 0.00 | 31 | 1016.6 |
| 20260903075105 | 74 | 174 | 0.0 | 0.0 | 0.00 | 0.00 | 0.00 | 31 | 1016.6 |
| 20260903074605 | 74 | 174 | 0.0 | 0.0 | 0.00 | 0.00 | 0.00 | 31 | 1016.6 |
| 20260903074106 | 74 | 174 | 0.0 | 0.0 | 0.00 | 0.00 | 0.00 | 31 | 1016.6 |
| 20260903073602 | 74 | 174 | 0.0 | 0.0 | 0.00 | 0.00 | 0.00 | 31 | 1016.6 |
| 20260903073102 | 74 | 174 | 0.0 | 0.0 | 0.00 | 0.00 | 0.00 | 31 | 1016.6 |
| 20260903072636 | 74 | 174 | 0.0 | 0.0 | 0.00 | 0.00 | 0.00 | 31 | 1016.6 |
| 20260903072603 | 74 | 174 | 0.0 | 0.0 | 0.00 | 0.00 | 0.00 | 31 | 1016.6 |
| 20260903071550 | 74 | 174 | 0.0 | 0.0 | 0.00 | 0.00 | 0.00 | 31 | 1016.6 |
| 20260903071051 | 74 | 174 | 0.0 | 0.0 | 0.00 | 0.00 | 0.00 | 31 | 1016.6 |
| 20260903070546 | 74 | 174 | 0.0 | 0.0 | 0.00 | 0.00 | 0.00 | 31 | 1016.6 |
| 20260903070046 | 74 | 174 | 0.0 | 0.0 | 0.00 | 0.00 | 0.00 | 31 | 1016.6 |
| 20260903065546 | 74 | 174 | 0.0 | 0.0 | 0.00 | 0.00 | 0.00 | 31 | 1016.6 |
| 20260903065042 | 74 | 174 | 0.0 | 0.0 | 0.00 | 0.00 | 0.00 | 31 | 1016.6 |
| 20260903064542 | 74 | 174 | 0.0 | 0.0 | 0.00 | 0.00 | 0.00 | 31 | 1016.6 |
| 20260903064043 | 74 | 174 | 0.0 | 0.0 | 0.00 | 0.00 | 0.00 | 31 | 1017.6 |
| 20260903063534 | 75 | 174 | 0.0 | 0.0 | 0.00 | 0.00 | 0.00 | 31 | 1017.6 |
| 20260903063034 | 75 | 174 | 0.0 | 0.0 | 0.00 | 0.00 | 0.00 | 31 | 1017.6 |
| 20260903062535 | 75 | 174 | 0.0 | 0.0 | 0.00 | 0.00 | 0.00 | 31 | 1017.6 |
| 20260903062030 | 75 | 174 | 0.0 | 0.0 | 0.00 | 0.00 | 0.00 | 31 | 1017.6 |
| 20260903061529 | 75 | 174 | 0.0 | 0.0 | 0.00 | 0.00 | 0.00 | 31 | 1017.6 |
| 20260903061029 | 75 | 174 | 0.0 | 0.0 | 0.00 | 0.00 | 0.00 | 30 | 1017.6 |
| 20260903060521 | 75 | 174 | 0.0 | 0.0 | 0.00 | 0.00 | 0.00 | 30 | 1017.6 |
| 20260903060019 | 75 | 174 | 0.0 | 0.0 | 0.00 | 0.00 | 0.00 | 30 | 1017.6 |
| 20260903055520 | 75 | 174 | 0.0 | 0.0 | 0.00 | 0.00 | 0.00 | 30 | 1017.6 |
| 20260903054959 | 75 | 174 | 0.0 | 0.0 | 0.00 | 0.00 | 0.00 | 30 | 1017.6 |
| 20260903054500 | 75 | 174 | 0.0 | 0.0 | 0.00 | 0.00 | 0.00 | 30 | 1017.6 |
| 20260903054000 | 75 | 174 | 0.0 | 0.0 | 0.00 | 0.00 | 0.00 | 30 | 1017.6 |
| 20260903053455 | 75 | 174 | 0.0 | 0.0 | 0.00 | 0.00 | 0.00 | 30 | 1017.6 |
| 20260903052956 | 75 | 174 | 0.0 | 0.0 | 0.00 | 0.00 | 0.00 | 30 | 1017.6 |
| 20260903051947 | 75 | 174 | 0.0 | 0.0 | 0.00 | 0.00 | 0.00 | 29 | 1017.6 |
| 20260903051448 | 75 | 174 | 0.0 | 0.0 | 0.00 | 0.00 | 0.00 | 29 | 1017.6 |
| 20260903045944 | 76 | 174 | 0.0 | 0.0 | 0.00 | 0.00 | 0.00 | 29 | 1017.6 |
| 20260903044939 | 76 | 174 | 0.0 | 0.0 | 0.00 | 0.00 | 0.00 | 29 | 1017.6 |
| 20260903044439 | 76 | 174 | 0.0 | 0.0 | 0.00 | 0.00 | 0.00 | 29 | 1017.6 |
| 20260903043940 | 76 | 174 | 0.0 | 0.0 | 0.00 | 0.00 | 0.00 | 28 | 1017.6 |
| 20260903043435 | 76 | 174 | 0.0 | 0.0 | 0.00 | 0.00 | 0.00 | 28 | 1017.6 |
| 20260903042436 | 76 | 174 | 0.0 | 0.0 | 0.00 | 0.00 | 0.00 | 28 | 1017.6 |
| 20260903035929 | 76 | 174 | 0.0 | 0.0 | 0.00 | 0.00 | 0.00 | 27 | 1017.6 |
| 20260903035430 | 77 | 174 | 0.0 | 0.0 | 0.00 | 0.00 | 0.00 | 27 | 1017.6 |
| 20260903034427 | 77 | 174 | 0.0 | 0.0 | 0.00 | 0.00 | 0.00 | 26 | 1017.6 |
| 20260903032925 | 77 | 174 | 0.0 | 0.0 | 0.00 | 0.00 | 0.00 | 26 | 1017.6 |
| 20260903025406 | 77 | 174 | 0.0 | 0.0 | 0.00 | 0.00 | 0.00 | 24 | 1017.6 |
| 20260903024902 | 78 | 174 | 0.0 | 0.0 | 0.00 | 0.00 | 0.00 | 24 | 1017.6 |
| 20260903024401 | 78 | 174 | 0.0 | 0.0 | 0.00 | 0.00 | 0.00 | 24 | 1017.6 |
| 20260903023901 | 78 | 174 | 0.0 | 0.0 | 0.00 | 0.00 | 0.00 | 23 | 1017.6 |
| 20260903023350 | 78 | 174 | 0.0 | 0.0 | 0.00 | 0.00 | 0.00 | 23 | 1017.6 |
| 20260903022850 | 78 | 174 | 0.0 | 0.0 | 0.00 | 0.00 | 0.00 | 23 | 1017.6 |
| 20260903022350 | 78 | 174 | 0.0 | 0.0 | 0.00 | 0.00 | 0.00 | 23 | 1017.6 |
| 20260903021846 | 78 | 174 | 0.0 | 0.0 | 0.00 | 0.00 | 0.00 | 23 | 1017.6 |
| 20260903020934 | 78 | 174 | 0.0 | 0.0 | 0.00 | 0.00 | 0.00 | 22 | 1017.6 |
| 20260903020847 | 78 | 174 | 0.0 | 0.0 | 0.00 | 0.00 | 0.00 | 22 | 1017.6 |
| 20260903020342 | 79 | 174 | 0.0 | 0.0 | 0.00 | 0.00 | 0.00 | 22 | 1017.6 |
| 20260903015342 | 79 | 174 | 0.0 | 0.0 | 0.00 | 0.00 | 0.00 | 22 | 1016.6 |
| 20260903014913 | 79 | 174 | 0.0 | 0.0 | 0.00 | 0.00 | 0.00 | 21 | 1016.6 |
| 20260903014837 | 79 | 174 | 0.0 | 0.0 | 0.00 | 0.00 | 0.00 | 21 | 1016.6 |
| 20260903014338 | 79 | 174 | 0.0 | 0.0 | 0.00 | 0.00 | 0.00 | 21 | 1016.6 |
| 20260903013331 | 79 | 174 | 0.0 | 0.0 | 0.00 | 0.00 | 0.00 | 21 | 1016.6 |
| 20260903012832 | 80 | 174 | 0.0 | 0.0 | 0.00 | 0.00 | 0.00 | 20 | 1016.6 |
| 20260903011327 | 80 | 174 | 0.0 | 0.0 | 0.00 | 0.00 | 0.00 | 20 | 1016.6 |
| 20260903010827 | 80 | 174 | 0.0 | 0.0 | 0.00 | 0.00 | 0.00 | 20 | 1016.6 |
| 20260903010323 | 81 | 174 | 0.0 | 0.0 | 0.00 | 0.00 | 0.00 | 20 | 1016.6 |
| 20260903005823 | 81 | 174 | 0.0 | 0.0 | 0.00 | 0.00 | 0.00 | 19 | 1016.6 |
| 20260903004819 | 81 | 174 | 0.0 | 0.0 | 0.00 | 0.00 | 0.00 | 19 | 1016.6 |
| 20260903004319 | 82 | 174 | 0.0 | 0.0 | 0.00 | 0.00 | 0.00 | 16 | 1016.6 |
| 20260903003308 | 82 | 174 | 0.0 | 0.0 | 0.00 | 0.00 | 0.00 | 16 | 1016.6 |
| 20260903001806 | 83 | 174 | 0.0 | 0.0 | 0.00 | 0.00 | 0.00 | 16 | 1016.6 |
| 20260902234259 | 86 | 174 | 0.0 | 0.0 | 0.00 | 0.00 | 0.00 | 13 | 1016.6 |
| 20260902233759 | 86 | 174 | 0.0 | 0.0 | 0.00 | 0.00 | 0.00 | 13 | 1016.6 |
| 20260902232256 | 87 | 174 | 0.0 | 0.0 | 0.00 | 0.00 | 0.00 | 13 | 1016.6 |
| 20260902231751 | 88 | 174 | 0.0 | 0.0 | 0.00 | 0.00 | 0.00 | 13 | 1016.6 |
| 20260902231251 | 88 | 174 | 0.0 | 0.0 | 0.00 | 0.00 | 0.00 | 13 | 1016.6 |
| 20260902230751 | 88 | 174 | 0.0 | 0.0 | 0.00 | 0.00 | 0.00 | 12 | 1016.6 |
| 20260902225749 | 90 | 174 | 0.0 | 0.0 | 0.00 | 0.00 | 0.00 | 12 | 1016.6 |
| 20260902224747 | 90 | 174 | 0.0 | 0.0 | 0.00 | 0.00 | 0.00 | 12 | 1016.6 |
| 20260902223747 | 90 | 174 | 0.0 | 0.0 | 0.00 | 0.00 | 0.00 | 12 | 1016.6 |
| 20260902222743 | 92 | 174 | 0.0 | 0.0 | 0.00 | 0.00 | 0.00 | 12 | 1016.6 |
| 20260902221738 | 92 | 174 | 0.0 | 0.0 | 0.00 | 0.00 | 0.00 | 11 | 1016.6 |
| 20260902220234 | 93 | 174 | 0.0 | 0.0 | 0.00 | 0.00 | 0.00 | 11 | 1016.6 |
| 20260902215734 | 93 | 174 | 0.0 | 0.0 | 0.00 | 0.00 | 0.00 | 11 | 1016.6 |
| 20260902214730 | 95 | 174 | 0.0 | 0.0 | 0.00 | 0.00 | 0.00 | 11 | 1016.6 |
| 20260902214230 | 95 | 174 | 0.0 | 0.0 | 0.00 | 0.00 | 0.00 | 11 | 1016.6 |
| 20260902213731 | 95 | 174 | 0.0 | 0.0 | 0.00 | 0.00 | 0.00 | 11 | 1016.6 |
| 20260902212915 | 95 | 78 | 0.0 | 0.0 | 0.00 | 0.00 | 0.00 | 11 | 1016.6 |
| 20260902212728 | 95 | 78 | 0.0 | 0.0 | 0.00 | 0.00 | 0.00 | 11 | 1016.6 |
| 20260902212228 | 95 | 111 | 0.0 | 0.0 | 0.00 | 0.00 | 0.00 | 11 | 1017.6 |
| 20260902211722 | 95 | 113 | 0.0 | 0.0 | 0.00 | 0.00 | 0.00 | 11 | 1017.6 |
| 20260902211220 | 95 | 155 | 0.0 | 0.0 | 0.00 | 0.00 | 0.00 | 11 | 1017.6 |
| 20260902210720 | 95 | 154 | 0.0 | 0.0 | 0.00 | 0.00 | 0.00 | 11 | 1017.6 |
| 20260902210215 | 95 | 154 | 0.0 | 0.0 | 0.00 | 0.00 | 0.00 | 11 | 1017.6 |
| 20260902205716 | 96 | 154 | 0.0 | 0.0 | 0.00 | 0.00 | 0.00 | 11 | 1017.6 |
| 20260902205216 | 96 | 154 | 0.0 | 0.0 | 0.00 | 0.00 | 0.00 | 11 | 1017.6 |
| 20260902204711 | 96 | 117 | 0.0 | 0.0 | 0.00 | 0.00 | 0.00 | 11 | 1017.6 |
| 20260902204211 | 96 | 120 | 0.0 | 0.0 | 0.00 | 0.00 | 0.00 | 11 | 1017.6 |
| 20260902203712 | 96 | 150 | 0.0 | 0.0 | 0.00 | 0.00 | 0.00 | 11 | 1017.6 |
| 20260902202709 | 97 | 155 | 0.0 | 0.0 | 0.00 | 0.00 | 0.00 | 11 | 1017.6 |
| 20260902202244 | 97 | 155 | 0.0 | 0.0 | 0.00 | 0.00 | 0.00 | 11 | 1017.6 |
| 20260902202210 | 97 | 155 | 0.0 | 0.0 | 0.00 | 0.00 | 0.00 | 11 | 1017.6 |
| 20260902201705 | 97 | 155 | 0.0 | 0.0 | 0.00 | 0.00 | 0.00 | 11 | 1017.6 |
| 20260902201205 | 97 | 152 | 0.0 | 0.0 | 0.00 | 0.00 | 0.00 | 11 | 1017.6 |
| 20260902200706 | 97 | 152 | 0.0 | 0.0 | 0.00 | 0.00 | 0.00 | 11 | 1017.6 |
| 20260902195703 | 97 | 99 | 0.0 | 0.0 | 0.00 | 0.00 | 0.00 | 11 | 1017.6 |
| 20260902195204 | 97 | 331 | 0.0 | 0.0 | 0.00 | 0.00 | 0.00 | 11 | 1017.6 |
| 20260902194201 | 97 | 330 | 0.0 | 0.0 | 0.00 | 0.00 | 0.00 | 11 | 1017.6 |
| 20260902193702 | 97 | 330 | 0.0 | 0.0 | 0.00 | 0.00 | 0.00 | 11 | 1018.6 |
| 20260902193156 | 96 | 330 | 0.0 | 0.0 | 0.00 | 0.00 | 0.00 | 11 | 1018.6 |
| 20260902192656 | 94 | 330 | 0.0 | 0.0 | 0.00 | 0.00 | 0.00 | 11 | 1018.6 |
| 20260902192157 | 95 | 330 | 0.0 | 0.0 | 0.00 | 0.00 | 0.00 | 11 | 1018.6 |
| 20260902191653 | 96 | 330 | 0.0 | 0.0 | 0.00 | 0.00 | 0.00 | 11 | 1018.6 |
| 20260902191152 | 96 | 330 | 0.0 | 0.0 | 0.00 | 0.00 | 0.00 | 11 | 1018.6 |
| 20260902190652 | 97 | 234 | 0.0 | 0.0 | 0.00 | 0.00 | 0.00 | 11 | 1018.6 |
| 20260902183644 | 97 | 81 | 0.0 | 0.0 | 0.00 | 0.00 | 0.00 | 11 | 1018.6 |